createdAt,value
2018-01-30T00:01:23.528Z,93.40
2018-01-30T00:03:51.715Z,93.60
2018-01-30T00:06:19.568Z,93.80
2018-01-30T00:08:47.461Z,94.10
2018-01-30T00:11:15.406Z,94.60
2018-01-30T00:13:43.237Z,94.70
2018-01-30T00:16:11.139Z,95.20
2018-01-30T00:18:39.109Z,95.40
2018-01-30T00:21:06.983Z,95.40
2018-01-30T00:23:34.841Z,95.70
2018-01-30T00:26:02.810Z,95.70
2018-01-30T00:28:30.575Z,95.60
2018-01-30T00:30:58.444Z,95.50
2018-01-30T00:33:26.208Z,95.40
2018-01-30T00:35:54.094Z,95.40
2018-01-30T00:38:21.959Z,95.70
2018-01-30T00:40:49.816Z,96.00
2018-01-30T00:43:17.675Z,96.10
2018-01-30T00:45:45.502Z,96.30
2018-01-30T00:48:13.408Z,96.20
2018-01-30T00:50:41.290Z,96.00
2018-01-30T00:53:09.142Z,96.10
2018-01-30T00:55:37.119Z,96.30
2018-01-30T00:58:04.978Z,96.50
2018-01-30T01:00:32.846Z,96.50
2018-01-30T01:03:00.782Z,96.60
2018-01-30T01:05:28.589Z,96.70
2018-01-30T01:07:56.456Z,96.20
2018-01-30T01:10:24.313Z,95.70
2018-01-30T01:12:52.180Z,95.50
2018-01-30T01:15:20.060Z,95.50
2018-01-30T01:17:48.231Z,95.60
2018-01-30T01:20:16.090Z,95.70
2018-01-30T01:22:43.970Z,95.80
2018-01-30T01:25:11.782Z,95.80
2018-01-30T01:27:39.700Z,95.80
2018-01-30T01:30:07.676Z,95.80
2018-01-30T01:32:35.638Z,95.90
2018-01-30T01:35:03.403Z,96.00
2018-01-30T01:37:31.362Z,96.00
2018-01-30T01:39:59.338Z,96.10
2018-01-30T01:42:27.199Z,96.10
2018-01-30T01:44:55.073Z,96.10
2018-01-30T01:47:23.036Z,96.10
2018-01-30T01:49:50.930Z,96.20
2018-01-30T01:52:19.485Z,96.60
2018-01-30T01:54:47.361Z,96.50
2018-01-30T01:57:15.220Z,96.50
2018-01-30T01:59:43.088Z,96.50
2018-01-30T02:02:10.964Z,96.60
2018-01-30T02:04:38.821Z,96.70
2018-01-30T02:07:06.694Z,96.70
2018-01-30T02:09:34.553Z,96.80
2018-01-30T02:12:02.422Z,96.90
2018-01-30T02:14:30.294Z,97.00
2018-01-30T02:16:58.360Z,96.80
2018-01-30T02:19:26.230Z,96.80
2018-01-30T02:21:54.109Z,96.90
2018-01-30T02:24:22.174Z,97.00
2018-01-30T02:26:50.080Z,97.30
2018-01-30T02:29:18.729Z,97.70
2018-01-30T02:31:46.687Z,97.70
2018-01-30T02:34:14.584Z,97.70
2018-01-30T02:36:42.477Z,97.50
2018-01-30T02:39:11.161Z,97.30
2018-01-30T02:41:39.794Z,97.30
2018-01-30T02:44:07.559Z,97.30
2018-01-30T02:46:35.445Z,97.40
2018-01-30T02:49:03.495Z,97.50
2018-01-30T02:51:31.472Z,97.60
2018-01-30T02:53:59.539Z,97.60
2018-01-30T02:56:27.411Z,97.80
2018-01-30T02:58:55.273Z,97.80
2018-01-30T03:01:23.250Z,97.70
2018-01-30T03:03:51.119Z,97.60
2018-01-30T03:06:18.984Z,97.60
2018-01-30T03:08:46.944Z,97.60
2018-01-30T03:11:14.842Z,97.60
2018-01-30T03:13:42.746Z,97.60
2018-01-30T03:16:10.658Z,97.60
2018-01-30T03:18:38.515Z,97.70
2018-01-30T03:21:06.426Z,97.90
2018-01-30T03:23:35.179Z,97.60
2018-01-30T03:26:02.987Z,97.50
2018-01-30T03:28:31.578Z,96.50
2018-01-30T03:30:59.487Z,96.50
2018-01-30T03:33:27.356Z,96.40
2018-01-30T03:35:55.182Z,96.50
2018-01-30T03:38:23.189Z,96.70
2018-01-30T03:40:51.065Z,96.70
2018-01-30T03:43:18.986Z,96.70
2018-01-30T03:45:46.894Z,96.70
2018-01-30T03:48:14.760Z,96.60
2018-01-30T03:50:42.776Z,96.50
2018-01-30T03:53:11.571Z,96.50
2018-01-30T03:55:40.316Z,96.80
2018-01-30T03:58:08.173Z,96.70
2018-01-30T04:00:36.395Z,96.90
2018-01-30T04:03:05.054Z,97.00
2018-01-30T04:05:32.905Z,97.00
2018-01-30T04:08:00.914Z,97.10
2018-01-30T04:10:29.406Z,97.50
2018-01-30T04:12:58.446Z,97.60
2018-01-30T04:15:26.458Z,97.70
2018-01-30T04:17:55.103Z,97.80
2018-01-30T04:20:23.081Z,97.80
2018-01-30T04:22:50.927Z,97.70
2018-01-30T04:25:18.909Z,97.60
2018-01-30T04:27:46.876Z,97.50
2018-01-30T04:30:14.802Z,97.40
2018-01-30T04:32:42.612Z,97.30
2018-01-30T04:35:10.651Z,97.20
2018-01-30T04:37:38.485Z,97.20
2018-01-30T04:40:07.134Z,97.40
2018-01-30T04:42:35.048Z,97.40
2018-01-30T04:45:03.586Z,97.40
2018-01-30T04:47:31.665Z,97.30
2018-01-30T04:49:59.523Z,97.50
2018-01-30T04:52:27.389Z,97.70
2018-01-30T04:54:55.470Z,97.80
2018-01-30T04:57:23.450Z,97.80
2018-01-30T04:59:51.710Z,97.80
2018-01-30T05:02:19.739Z,97.80
2018-01-30T05:04:48.773Z,98.00
2018-01-30T05:07:16.666Z,98.00
2018-01-30T05:09:44.686Z,98.00
2018-01-30T05:12:12.512Z,98.00
2018-01-30T05:14:41.470Z,98.10
2018-01-30T05:17:09.336Z,98.00
2018-01-30T05:19:37.398Z,98.20
2018-01-30T05:22:05.377Z,98.10
2018-01-30T05:24:33.332Z,98.10
2018-01-30T05:27:01.286Z,98.00
2018-01-30T05:29:29.098Z,98.00
2018-01-30T05:31:56.955Z,97.90
2018-01-30T05:34:24.727Z,98.00
2018-01-30T05:36:52.722Z,97.90
2018-01-30T05:39:21.492Z,97.80
2018-01-30T05:41:50.470Z,97.80
2018-01-30T05:44:18.435Z,97.70
2018-01-30T05:46:46.415Z,97.70
2018-01-30T05:49:14.275Z,97.60
2018-01-30T05:51:43.265Z,97.80
2018-01-30T05:54:11.133Z,97.80
2018-01-30T05:56:38.996Z,97.80
2018-01-30T05:59:06.973Z,97.70
2018-01-30T06:01:34.900Z,97.70
2018-01-30T06:04:02.700Z,97.80
2018-01-30T06:06:30.567Z,97.90
2018-01-30T06:08:58.440Z,97.80
2018-01-30T06:11:26.301Z,97.90
2018-01-30T06:13:54.390Z,98.10
2018-01-30T06:16:22.250Z,98.20
2018-01-30T06:18:50.104Z,98.20
2018-01-30T06:21:18.177Z,98.20
2018-01-30T06:23:46.351Z,98.10
2018-01-30T06:26:14.134Z,98.00
2018-01-30T06:28:42.440Z,98.00
2018-01-30T06:31:11.190Z,98.00
2018-01-30T06:33:39.357Z,98.00
2018-01-30T06:36:07.224Z,98.00
2018-01-30T06:38:35.148Z,97.90
2018-01-30T06:41:02.956Z,97.90
2018-01-30T06:43:30.848Z,98.00
2018-01-30T06:45:58.588Z,98.00
2018-01-30T06:48:26.660Z,98.00
2018-01-30T06:50:54.788Z,98.20
2018-01-30T06:53:23.470Z,98.20
2018-01-30T06:55:52.172Z,98.10
2018-01-30T06:58:20.248Z,98.10
2018-01-30T07:00:48.120Z,98.10
2018-01-30T07:03:16.011Z,98.10
2018-01-30T07:05:44.112Z,98.10
2018-01-30T07:08:12.155Z,98.00
2018-01-30T07:10:40.224Z,97.90
2018-01-30T07:13:08.306Z,98.00
2018-01-30T07:15:36.449Z,98.00
2018-01-30T07:18:04.441Z,97.90
2018-01-30T07:20:32.459Z,97.90
2018-01-30T07:23:01.301Z,98.10
2018-01-30T07:25:29.169Z,98.00
2018-01-30T07:27:57.055Z,98.00
2018-01-30T07:30:24.840Z,97.80
2018-01-30T07:32:53.486Z,97.80
2018-01-30T07:35:22.172Z,97.70
2018-01-30T07:37:50.556Z,97.80
2018-01-30T07:40:18.522Z,97.80
2018-01-30T07:42:46.694Z,97.70
2018-01-30T07:45:14.560Z,97.80
2018-01-30T07:47:42.637Z,97.80
2018-01-30T07:50:10.603Z,97.90
2018-01-30T07:52:39.435Z,97.90
2018-01-30T07:55:08.194Z,97.90
2018-01-30T07:57:36.557Z,97.90
2018-01-30T08:00:04.433Z,97.80
2018-01-30T08:02:32.524Z,97.80
2018-01-30T08:05:00.621Z,97.90
2018-01-30T08:07:28.434Z,97.80
2018-01-30T08:09:56.506Z,97.80
2018-01-30T08:12:24.346Z,97.80
2018-01-30T08:14:52.171Z,97.80
2018-01-30T08:17:19.983Z,97.80
2018-01-30T08:19:47.841Z,98.00
2018-01-30T08:22:15.645Z,97.70
2018-01-30T08:24:43.442Z,97.50
2018-01-30T08:27:12.192Z,97.30
2018-01-30T08:29:40.069Z,97.30
2018-01-30T08:32:07.926Z,97.30
2018-01-30T08:34:35.892Z,97.30
2018-01-30T08:37:04.068Z,97.20
2018-01-30T08:39:32.194Z,97.10
2018-01-30T08:42:00.113Z,97.40
2018-01-30T08:44:27.932Z,96.90
2018-01-30T08:46:55.775Z,96.60
2018-01-30T08:49:24.918Z,96.70
2018-01-30T08:51:53.274Z,96.70
2018-01-30T08:54:21.247Z,96.50
2018-01-30T08:56:49.162Z,96.30
2018-01-30T08:59:17.021Z,95.90
2018-01-30T09:01:45.002Z,95.90
2018-01-30T09:04:12.858Z,95.70
2018-01-30T09:06:40.941Z,95.60
2018-01-30T09:09:09.001Z,95.20
2018-01-30T09:11:36.971Z,94.40
2018-01-30T09:14:05.011Z,94.00
2018-01-30T09:16:33.294Z,93.50
2018-01-30T09:19:01.349Z,92.70
2018-01-30T09:21:29.255Z,92.60
2018-01-30T09:23:57.568Z,92.00
2018-01-30T09:26:26.458Z,91.00
2018-01-30T09:28:55.291Z,90.40
2018-01-30T09:31:23.138Z,90.40
2018-01-30T09:33:51.075Z,89.00
2018-01-30T09:36:19.632Z,87.80
2018-01-30T09:38:47.607Z,84.70
2018-01-30T09:41:15.843Z,83.80
2018-01-30T09:43:43.754Z,83.40
2018-01-30T09:46:11.869Z,82.10
2018-01-30T09:48:40.506Z,80.00
2018-01-30T09:51:08.679Z,80.00
2018-01-30T09:53:36.751Z,76.30
2018-01-30T09:56:04.663Z,76.30
2018-01-30T09:58:33.450Z,73.70
2018-01-30T10:01:02.040Z,71.80
2018-01-30T10:03:30.947Z,71.30
2018-01-30T10:05:58.957Z,71.30
2018-01-30T10:08:26.920Z,68.90
2018-01-30T10:10:54.851Z,68.20
2018-01-30T10:13:22.971Z,65.60
2018-01-30T10:15:51.326Z,64.50
2018-01-30T10:18:19.309Z,64.30
2018-01-30T10:20:47.178Z,64.00
2018-01-30T10:23:15.047Z,63.30
2018-01-30T10:25:43.187Z,62.60
2018-01-30T10:28:11.672Z,61.50
2018-01-30T10:30:39.782Z,60.60
2018-01-30T10:33:08.026Z,59.20
2018-01-30T10:35:36.341Z,58.50
2018-01-30T10:38:04.262Z,57.70
2018-01-30T10:40:32.391Z,56.80
2018-01-30T10:43:00.847Z,56.50
2018-01-30T10:45:29.123Z,56.10
2018-01-30T10:47:57.095Z,55.60
2018-01-30T10:50:25.117Z,55.20
2018-01-30T10:52:53.033Z,55.00
2018-01-30T10:55:20.897Z,54.00
2018-01-30T10:57:48.771Z,54.00
2018-01-30T11:00:16.631Z,53.40
2018-01-30T11:02:44.517Z,53.20
2018-01-30T11:05:12.367Z,52.30
2018-01-30T11:07:40.278Z,51.40
2018-01-30T11:10:08.979Z,50.90
2018-01-30T11:12:36.806Z,50.90
2018-01-30T11:15:04.716Z,51.00
2018-01-30T11:17:32.480Z,50.90
2018-01-30T11:20:00.385Z,50.60
2018-01-30T11:22:28.196Z,49.80
2018-01-30T11:24:56.904Z,49.00
2018-01-30T11:27:24.786Z,49.00
2018-01-30T11:29:52.674Z,48.00
2018-01-30T11:32:20.491Z,47.80
2018-01-30T11:34:48.352Z,46.90
2018-01-30T11:37:16.197Z,45.90
2018-01-30T11:39:44.055Z,46.10
2018-01-30T11:42:12.004Z,43.10
2018-01-30T11:44:39.791Z,42.70
2018-01-30T11:47:07.682Z,41.70
2018-01-30T11:49:36.315Z,42.60
2018-01-30T11:52:04.071Z,42.60
2018-01-30T11:54:31.960Z,42.10
2018-01-30T11:57:00.020Z,41.80
2018-01-30T11:59:27.862Z,40.90
2018-01-30T12:01:55.712Z,40.70
2018-01-30T12:04:24.411Z,40.50
2018-01-30T12:06:52.189Z,40.50
2018-01-30T12:09:20.083Z,40.20
2018-01-30T12:11:47.975Z,38.80
2018-01-30T12:14:15.817Z,38.10
2018-01-30T12:16:43.727Z,38.50
2018-01-30T12:19:12.312Z,38.10
2018-01-30T12:21:40.818Z,37.80
2018-01-30T12:24:08.685Z,37.80
2018-01-30T12:26:36.697Z,37.70
2018-01-30T12:29:04.604Z,37.30
2018-01-30T12:31:32.598Z,37.20
2018-01-30T12:34:00.544Z,37.40
2018-01-30T12:36:28.299Z,37.30
2018-01-30T12:38:56.215Z,37.40
2018-01-30T12:41:24.112Z,37.10
2018-01-30T12:43:51.997Z,37.50
2018-01-30T12:46:19.938Z,38.00
2018-01-30T12:48:47.738Z,37.90
2018-01-30T12:51:16.558Z,38.30
2018-01-30T12:53:44.375Z,38.30
2018-01-30T12:56:12.174Z,37.00
2018-01-30T12:58:40.031Z,37.10
2018-01-30T13:01:07.891Z,36.20
2018-01-30T13:03:36.512Z,35.30
2018-01-30T13:06:04.297Z,35.30
2018-01-30T13:08:32.175Z,35.00
2018-01-30T13:10:59.927Z,34.90
2018-01-30T13:13:27.998Z,34.30
2018-01-30T13:15:56.071Z,34.40
2018-01-30T13:18:23.903Z,34.40
2018-01-30T13:20:51.916Z,33.80
2018-01-30T13:23:20.706Z,32.60
2018-01-30T13:25:48.766Z,32.60
2018-01-30T13:28:16.578Z,32.90
2018-01-30T13:30:45.629Z,31.80
2018-01-30T13:33:13.504Z,31.80
2018-01-30T13:35:41.364Z,31.90
2018-01-30T13:38:09.259Z,32.00
2018-01-30T13:40:37.102Z,32.00
2018-01-30T13:43:04.883Z,31.70
2018-01-30T13:45:32.734Z,32.20
2018-01-30T13:48:00.554Z,32.80
2018-01-30T13:50:28.363Z,32.90
2018-01-30T13:52:56.145Z,33.00
2018-01-30T13:55:23.906Z,32.50
2018-01-30T13:57:51.711Z,32.50
2018-01-30T14:00:19.518Z,32.50
2018-01-30T14:02:47.306Z,32.30
2018-01-30T14:05:15.053Z,31.50
2018-01-30T14:07:42.953Z,31.60
2018-01-30T14:10:11.547Z,31.90
2018-01-30T14:12:40.130Z,31.70
2018-01-30T14:15:08.774Z,31.70
2018-01-30T14:17:36.495Z,31.70
2018-01-30T14:20:04.214Z,31.40
2018-01-30T14:22:32.063Z,31.10
2018-01-30T14:24:59.907Z,30.00
2018-01-30T14:27:27.729Z,28.90
2018-01-30T14:29:56.436Z,25.90
2018-01-30T14:32:24.191Z,25.60
2018-01-30T14:34:53.080Z,23.80
2018-01-30T14:37:21.021Z,23.80
2018-01-30T14:39:48.927Z,22.80
2018-01-30T14:42:16.816Z,22.00
2018-01-30T14:44:44.677Z,22.30
2018-01-30T14:47:12.450Z,24.30
2018-01-30T14:49:40.191Z,25.50
2018-01-30T14:52:07.993Z,27.00
2018-01-30T14:54:35.811Z,28.30
2018-01-30T14:57:04.329Z,30.60
2018-01-30T14:59:32.151Z,30.50
2018-01-30T15:02:00.723Z,32.90
2018-01-30T15:04:29.280Z,34.00
2018-01-30T15:06:57.308Z,33.90
2018-01-30T15:09:25.236Z,34.50
2018-01-30T15:11:53.168Z,35.10
2018-01-30T15:14:21.334Z,35.60
2018-01-30T15:16:49.538Z,36.10
2018-01-30T15:19:17.780Z,36.60
2018-01-30T15:21:45.952Z,37.20
2018-01-30T15:24:13.900Z,37.50
2018-01-30T15:26:42.741Z,38.10
2018-01-30T15:29:10.727Z,38.10
2018-01-30T15:31:38.703Z,38.40
2018-01-30T15:34:07.787Z,39.50
2018-01-30T15:36:35.756Z,38.90
2018-01-30T15:39:03.726Z,39.30
2018-01-30T15:41:31.584Z,39.70
2018-01-30T15:43:59.713Z,40.30
2018-01-30T15:46:27.744Z,40.60
2018-01-30T15:48:55.698Z,41.50
2018-01-30T15:51:23.667Z,41.90
2018-01-30T15:53:51.990Z,42.30
2018-01-30T15:56:20.627Z,43.00
2018-01-30T15:58:48.805Z,43.00
2018-01-30T16:01:16.776Z,42.90
2018-01-30T16:03:44.580Z,43.10
2018-01-30T16:06:13.327Z,43.80
2018-01-30T16:08:41.502Z,43.80
2018-01-30T16:11:09.476Z,43.90
2018-01-30T16:13:37.419Z,44.00
2018-01-30T16:16:05.409Z,43.90
2018-01-30T16:18:33.479Z,44.00
2018-01-30T16:21:01.506Z,44.00
2018-01-30T16:23:29.581Z,44.20
2018-01-30T16:25:57.502Z,44.20
2018-01-30T16:28:25.420Z,44.20
2018-01-30T16:30:53.555Z,44.90
2018-01-30T16:33:23.037Z,45.30
2018-01-30T16:35:50.912Z,44.90
2018-01-30T16:38:18.893Z,45.40
2018-01-30T16:40:46.689Z,46.70
2018-01-30T16:43:15.389Z,47.70
2018-01-30T16:45:43.314Z,47.80
2018-01-30T16:48:11.297Z,48.20
2018-01-30T16:50:40.051Z,50.00
2018-01-30T16:53:07.924Z,49.50
2018-01-30T16:55:35.956Z,49.90
2018-01-30T16:58:03.808Z,50.40
2018-01-30T17:00:32.549Z,50.20
2018-01-30T17:03:00.625Z,50.10
2018-01-30T17:05:28.789Z,49.50
2018-01-30T17:07:56.729Z,49.90
2018-01-30T17:10:24.689Z,50.30
2018-01-30T17:12:52.768Z,50.80
2018-01-30T17:15:20.913Z,51.50
2018-01-30T17:17:49.662Z,52.50
2018-01-30T17:20:17.630Z,52.50
2018-01-30T17:22:45.532Z,53.40
2018-01-30T17:25:14.605Z,52.80
2018-01-30T17:27:42.819Z,52.80
2018-01-30T17:30:11.838Z,53.30
2018-01-30T17:32:39.751Z,53.30
2018-01-30T17:35:07.801Z,53.70
2018-01-30T17:37:35.712Z,54.60
2018-01-30T17:40:04.632Z,56.00
2018-01-30T17:42:32.950Z,56.00
2018-01-30T17:45:01.212Z,56.10
2018-01-30T17:47:29.183Z,56.10
2018-01-30T17:49:57.678Z,55.90
2018-01-30T17:52:25.828Z,55.70
2018-01-30T17:54:53.786Z,56.00
2018-01-30T17:57:21.827Z,56.00
2018-01-30T17:59:50.566Z,56.10
2018-01-30T18:02:18.527Z,56.10
2018-01-30T18:04:46.402Z,56.10
2018-01-30T18:07:14.546Z,56.20
2018-01-30T18:09:42.544Z,56.20
2018-01-30T18:12:10.739Z,56.50
2018-01-30T18:14:39.658Z,57.10
2018-01-30T18:17:08.425Z,57.30
2018-01-30T18:19:37.356Z,58.50
2018-01-30T18:22:05.156Z,58.40
2018-01-30T18:24:33.342Z,58.50
2018-01-30T18:27:01.709Z,57.90
2018-01-30T18:29:29.577Z,57.90
2018-01-30T18:31:57.667Z,57.80
2018-01-30T18:34:25.787Z,58.00
2018-01-30T18:36:57.244Z,58.00
2018-01-30T18:39:25.493Z,58.50
2018-01-30T18:41:55.093Z,58.60
2018-01-30T18:44:27.018Z,58.80
2018-01-30T18:47:05.575Z,58.80
2018-01-30T18:49:40.947Z,59.20
2018-01-30T18:52:16.433Z,59.30
2018-01-30T18:54:51.568Z,59.50
2018-01-30T18:57:25.603Z,59.60
2018-01-30T18:59:56.534Z,59.90
2018-01-30T19:02:27.644Z,59.80
2018-01-30T19:05:01.512Z,60.00
2018-01-30T19:07:31.789Z,60.30
2018-01-30T19:10:01.418Z,61.20
2018-01-30T19:12:33.184Z,62.10
2018-01-30T19:15:03.359Z,63.00
2018-01-30T19:17:33.051Z,62.90
2018-01-30T19:20:03.419Z,62.80
2018-01-30T19:22:34.251Z,62.70
2018-01-30T19:25:04.443Z,62.40
2018-01-30T19:27:34.080Z,62.30
2018-01-30T19:30:02.290Z,62.20
2018-01-30T19:32:30.155Z,62.70
2018-01-30T19:34:59.057Z,65.00
2018-01-30T19:37:27.428Z,65.10
2018-01-30T19:39:55.246Z,66.00
2018-01-30T19:42:23.176Z,67.40
2018-01-30T19:44:51.723Z,68.20
2018-01-30T19:47:20.230Z,68.50
2018-01-30T19:49:48.319Z,68.40
2018-01-30T19:52:16.987Z,71.70
2018-01-30T19:54:45.277Z,71.60
2018-01-30T19:57:13.650Z,72.20
2018-01-30T19:59:41.619Z,71.90
2018-01-30T20:02:10.374Z,76.60
2018-01-30T20:04:38.680Z,76.60
2018-01-30T20:07:06.560Z,80.60
2018-01-30T20:09:34.547Z,79.80
2018-01-30T20:12:03.369Z,75.50
2018-01-30T20:14:31.265Z,75.50
2018-01-30T20:16:59.290Z,76.30
2018-01-30T20:19:27.102Z,75.90
2018-01-30T20:21:55.291Z,75.90
2018-01-30T20:24:23.254Z,76.10
2018-01-30T20:26:51.306Z,76.30
2018-01-30T20:29:19.498Z,76.80
2018-01-30T20:31:47.571Z,77.60
2018-01-30T20:34:15.439Z,78.10
2018-01-30T20:36:43.611Z,78.20
2018-01-30T20:39:11.816Z,77.80
2018-01-30T20:41:40.780Z,79.00
2018-01-30T20:44:09.366Z,79.00
2018-01-30T20:46:37.796Z,79.40
2018-01-30T20:49:06.252Z,81.00
2018-01-30T20:51:34.252Z,82.00
2018-01-30T20:54:05.314Z,82.80
2018-01-30T20:56:37.473Z,82.60
2018-01-30T20:59:08.612Z,82.40
2018-01-30T21:01:41.151Z,81.90
2018-01-30T21:04:12.785Z,81.90
2018-01-30T21:06:43.524Z,80.60
2018-01-30T21:09:17.098Z,79.80
2018-01-30T21:11:46.077Z,78.70
2018-01-30T21:14:15.887Z,79.10
2018-01-30T21:16:46.362Z,79.50
2018-01-30T21:19:17.495Z,80.10
2018-01-30T21:21:47.947Z,80.30
2018-01-30T21:24:17.860Z,81.10
2018-01-30T21:26:49.095Z,82.20
2018-01-30T21:29:20.489Z,82.10
2018-01-30T21:31:52.436Z,82.80
2018-01-30T21:34:21.666Z,83.40
2018-01-30T21:36:49.525Z,83.40
2018-01-30T21:39:17.672Z,83.70
2018-01-30T21:41:45.839Z,83.90
2018-01-30T21:44:14.278Z,84.60
2018-01-30T21:46:43.217Z,83.80
2018-01-30T21:49:11.957Z,83.70
2018-01-30T21:51:40.818Z,84.70
2018-01-30T21:54:08.985Z,84.60
2018-01-30T21:56:36.970Z,84.30
2018-01-30T21:59:05.359Z,83.50
2018-01-30T22:01:33.614Z,83.00
2018-01-30T22:04:02.713Z,83.10
2018-01-30T22:06:30.567Z,83.00
2018-01-30T22:08:58.440Z,82.80
2018-01-30T22:11:26.232Z,83.20
2018-01-30T22:13:54.037Z,84.50
2018-01-30T22:16:21.919Z,85.20
2018-01-30T22:18:50.565Z,85.80
2018-01-30T22:21:19.527Z,87.70
2018-01-30T22:23:48.142Z,87.80
2018-01-30T22:26:17.168Z,90.00
2018-01-30T22:28:45.424Z,89.80
2018-01-30T22:31:12.863Z,90.40
2018-01-30T22:33:40.736Z,90.60
2018-01-30T22:36:09.304Z,91.10
2018-01-30T22:38:37.194Z,91.00
2018-01-30T22:41:05.795Z,91.10
2018-01-30T22:43:33.594Z,91.10
2018-01-30T22:46:01.465Z,91.20
